createdAt,value
2022-12-18T00:01:59.798Z,18.52
2022-12-18T00:04:49.362Z,18.85
2022-12-18T00:07:36.939Z,19.65
2022-12-18T00:10:23.966Z,18.15
2022-12-18T00:13:10.542Z,19.17
2022-12-18T00:16:06.243Z,19.60
2022-12-18T00:18:57.710Z,19.48
2022-12-18T00:21:45.298Z,20.60
2022-12-18T00:24:32.081Z,20.40
2022-12-18T00:27:18.492Z,18.23
2022-12-18T00:30:06.339Z,20.52
2022-12-18T00:32:53.406Z,20.42
2022-12-18T00:35:39.953Z,19.60
2022-12-18T00:38:26.985Z,19.60
2022-12-18T00:41:35.336Z,18.90
2022-12-18T00:44:23.647Z,19.00
2022-12-18T00:47:10.730Z,19.40
2022-12-18T00:49:57.571Z,18.17
2022-12-18T00:52:44.087Z,18.63
2022-12-18T00:55:30.980Z,18.00
2022-12-18T00:58:18.054Z,19.50
2022-12-18T01:01:07.731Z,17.92
2022-12-18T01:03:54.721Z,19.70
2022-12-18T01:06:44.966Z,19.60
2022-12-18T01:09:31.293Z,18.90
2022-12-18T01:12:18.411Z,19.13
2022-12-18T01:15:09.230Z,19.98
2022-12-18T01:17:57.392Z,20.33
2022-12-18T01:20:46.529Z,19.92
2022-12-18T01:23:33.087Z,18.38
2022-12-18T01:26:21.046Z,20.50
2022-12-18T01:29:07.688Z,20.95
2022-12-18T01:31:56.660Z,19.17
2022-12-18T01:34:43.372Z,18.33
2022-12-18T01:37:29.613Z,18.85
2022-12-18T01:40:16.438Z,18.77
2022-12-18T01:43:02.756Z,18.80
2022-12-18T01:45:49.900Z,19.50
2022-12-18T01:48:36.505Z,18.55
2022-12-18T01:51:24.581Z,18.92
2022-12-18T01:54:10.830Z,19.02
2022-12-18T01:56:57.671Z,17.95
2022-12-18T01:59:46.881Z,18.42
2022-12-18T02:02:33.952Z,17.75
2022-12-18T02:06:06.760Z,17.20
2022-12-18T02:09:01.490Z,18.45
2022-12-18T02:12:07.564Z,16.85
2022-12-18T02:14:57.585Z,18.92
2022-12-18T02:17:51.951Z,20.15
2022-12-18T02:20:49.201Z,19.90
2022-12-18T02:24:04.592Z,18.45
2022-12-18T02:26:52.358Z,16.52
2022-12-18T02:29:58.568Z,17.63
2022-12-18T02:32:52.016Z,18.38
2022-12-18T02:35:40.191Z,18.33
2022-12-18T02:38:28.733Z,19.75
2022-12-18T02:41:18.154Z,19.95
2022-12-18T02:44:11.118Z,18.00
2022-12-18T02:46:57.908Z,20.42
2022-12-18T02:49:59.950Z,21.48
2022-12-18T02:53:02.790Z,20.15
2022-12-18T02:56:01.507Z,20.63
2022-12-18T02:59:03.739Z,20.33
2022-12-18T03:02:10.802Z,19.55
2022-12-18T03:05:13.196Z,20.38
2022-12-18T03:08:10.429Z,20.30
2022-12-18T03:11:03.769Z,22.65
2022-12-18T03:13:57.737Z,21.33
2022-12-18T03:16:46.033Z,21.42
2022-12-18T03:19:34.302Z,22.27
2022-12-18T03:22:24.994Z,22.08
2022-12-18T03:25:15.339Z,21.33
2022-12-18T03:28:03.677Z,23.02
2022-12-18T03:30:57.966Z,21.77
2022-12-18T03:33:48.657Z,20.83
2022-12-18T03:36:35.936Z,23.27
2022-12-18T03:39:22.682Z,23.30
2022-12-18T03:42:22.030Z,26.67
2022-12-18T03:45:20.632Z,23.77
2022-12-18T03:48:08.924Z,23.67
2022-12-18T03:51:07.316Z,24.80
2022-12-18T03:54:01.826Z,24.63
2022-12-18T03:56:58.696Z,26.50
2022-12-18T03:59:47.527Z,22.63
2022-12-18T04:02:38.530Z,23.63
2022-12-18T04:08:15.413Z,21.77
2022-12-18T04:11:09.619Z,21.85
2022-12-18T04:14:02.722Z,22.52
2022-12-18T04:16:53.001Z,24.05
2022-12-18T04:19:44.427Z,22.58
2022-12-18T04:22:31.373Z,23.38
2022-12-18T04:25:24.685Z,25.23
2022-12-18T04:28:25.214Z,26.67
2022-12-18T04:31:12.116Z,22.48
2022-12-18T04:33:59.303Z,22.98
2022-12-18T04:36:46.435Z,23.55
2022-12-18T04:39:33.948Z,25.48
2022-12-18T04:42:25.836Z,28.10
2022-12-18T04:45:12.366Z,27.13
2022-12-18T04:47:59.912Z,25.88
2022-12-18T04:50:48.125Z,23.55
2022-12-18T04:53:34.924Z,24.48
2022-12-18T04:56:21.621Z,23.70
2022-12-18T04:59:07.867Z,27.65
2022-12-18T05:01:55.031Z,23.20
2022-12-18T05:04:41.908Z,20.80
2022-12-18T05:07:28.975Z,22.63
2022-12-18T05:10:15.335Z,22.63
2022-12-18T05:13:04.882Z,22.52
2022-12-18T05:15:54.944Z,23.27
2022-12-18T05:18:42.312Z,22.40
2022-12-18T05:21:28.510Z,22.60
2022-12-18T05:24:15.561Z,25.33
2022-12-18T05:27:02.880Z,23.13
2022-12-18T05:29:49.963Z,26.60
2022-12-18T05:32:36.252Z,24.73
2022-12-18T05:35:22.912Z,26.05
2022-12-18T05:38:09.472Z,27.33
2022-12-18T05:40:56.974Z,29.38
2022-12-18T05:43:44.015Z,33.58
2022-12-18T05:46:30.989Z,24.92
2022-12-18T05:49:17.703Z,52.42
2022-12-18T05:52:04.823Z,26.05
2022-12-18T05:54:50.971Z,24.35
2022-12-18T05:57:40.693Z,24.05
2022-12-18T06:00:27.027Z,23.45
2022-12-18T06:03:14.638Z,24.00
2022-12-18T06:06:01.185Z,22.27
2022-12-18T06:08:48.062Z,24.27
2022-12-18T06:11:34.504Z,21.80
2022-12-18T06:14:22.069Z,21.98
2022-12-18T06:17:08.867Z,21.02
2022-12-18T06:19:55.274Z,21.33
2022-12-18T06:22:41.532Z,22.25
2022-12-18T06:25:28.375Z,21.73
2022-12-18T06:28:14.907Z,21.90
2022-12-18T06:31:07.043Z,19.75
2022-12-18T06:33:56.035Z,23.08
2022-12-18T06:36:42.703Z,21.95
2022-12-18T06:39:31.126Z,19.17
2022-12-18T06:42:18.035Z,19.48
2022-12-18T06:45:04.912Z,19.90
2022-12-18T06:47:52.076Z,18.98
2022-12-18T06:50:38.429Z,19.30
2022-12-18T06:53:25.114Z,21.95
2022-12-18T06:56:11.823Z,21.05
2022-12-18T06:58:58.848Z,22.17
2022-12-18T07:01:45.554Z,32.50
2022-12-18T07:04:33.168Z,68.20
2022-12-18T07:07:19.933Z,87.45
2022-12-18T07:10:07.138Z,48.78
2022-12-18T07:12:53.456Z,86.47
2022-12-18T07:15:40.329Z,94.22
2022-12-18T07:18:27.144Z,46.70
2022-12-18T07:21:16.221Z,55.72
2022-12-18T07:24:03.754Z,70.53
2022-12-18T07:26:50.408Z,23.50
2022-12-18T07:29:36.552Z,25.65
2022-12-18T07:32:25.817Z,22.88
2022-12-18T07:35:12.228Z,22.77
2022-12-18T07:37:59.150Z,24.02
2022-12-18T07:40:45.614Z,27.75
2022-12-18T07:43:32.381Z,23.70
2022-12-18T07:46:23.490Z,26.40
2022-12-18T07:49:28.491Z,40.65
2022-12-18T07:52:28.200Z,33.53
2022-12-18T07:55:26.017Z,26.15
2022-12-18T07:58:40.390Z,31.15
2022-12-18T08:01:33.340Z,24.70
2022-12-18T08:04:28.160Z,28.95
2022-12-18T08:07:21.356Z,33.28
2022-12-18T08:10:15.639Z,28.67
2022-12-18T08:13:16.949Z,30.98
2022-12-18T08:16:10.703Z,27.42
2022-12-18T08:19:08.899Z,29.30
2022-12-18T08:22:04.175Z,26.83
2022-12-18T08:25:04.942Z,23.85
2022-12-18T08:27:51.954Z,25.80
2022-12-18T08:30:39.311Z,34.28
2022-12-18T08:33:25.800Z,31.90
2022-12-18T08:36:12.608Z,91.33
2022-12-18T08:38:58.990Z,33.72
2022-12-18T08:42:10.044Z,34.80
2022-12-18T08:44:57.059Z,41.65
2022-12-18T08:47:43.284Z,38.63
2022-12-18T08:50:30.148Z,30.52
2022-12-18T08:53:16.555Z,29.45
2022-12-18T08:56:03.184Z,27.60
2022-12-18T08:58:55.969Z,46.47
2022-12-18T09:01:42.661Z,37.20
2022-12-18T09:04:29.423Z,36.88
2022-12-18T09:07:16.838Z,32.25
2022-12-18T09:10:04.054Z,28.27
2022-12-18T09:12:50.384Z,28.55
2022-12-18T09:15:49.591Z,27.63
2022-12-18T09:18:35.914Z,36.55
2022-12-18T09:21:22.910Z,50.33
2022-12-18T09:24:13.559Z,37.92
2022-12-18T09:29:46.772Z,39.22
2022-12-18T09:32:36.328Z,37.83
2022-12-18T09:35:23.415Z,35.45
2022-12-18T09:38:17.754Z,40.55
2022-12-18T09:41:16.610Z,37.20
2022-12-18T09:44:15.750Z,35.20
2022-12-18T09:47:16.562Z,55.42
2022-12-18T09:50:07.082Z,42.33
2022-12-18T09:52:56.104Z,36.28
2022-12-18T09:55:44.632Z,114.82
2022-12-18T09:58:47.969Z,61.92
2022-12-18T10:01:41.751Z,96.72
2022-12-18T10:04:32.113Z,51.55
2022-12-18T10:07:34.475Z,47.97
2022-12-18T10:10:39.586Z,71.70
2022-12-18T10:13:35.110Z,67.95
2022-12-18T10:16:37.980Z,125.85
2022-12-18T10:19:50.326Z,50.00
2022-12-18T10:22:48.588Z,52.40
2022-12-18T10:25:50.706Z,60.70
2022-12-18T10:28:42.312Z,56.92
2022-12-18T10:31:29.451Z,59.83
2022-12-18T10:34:16.259Z,64.35
2022-12-18T10:37:08.077Z,51.15
2022-12-18T10:40:22.340Z,44.10
2022-12-18T10:43:15.681Z,52.47
2022-12-18T10:46:11.408Z,46.45
2022-12-18T10:48:59.249Z,43.63
2022-12-18T10:51:45.836Z,54.55
2022-12-18T10:54:35.314Z,50.28
2022-12-18T10:57:27.899Z,52.58
2022-12-18T11:00:25.239Z,38.47
2022-12-18T11:03:40.632Z,43.22
2022-12-18T11:06:28.374Z,55.85
2022-12-18T11:09:23.191Z,50.55
2022-12-18T11:12:21.242Z,42.72
2022-12-18T11:15:08.003Z,42.30
2022-12-18T11:17:55.122Z,41.75
2022-12-18T11:20:41.786Z,43.78
2022-12-18T11:23:28.751Z,51.20
2022-12-18T11:26:15.594Z,67.82
2022-12-18T11:29:12.125Z,31.92
2022-12-18T11:32:14.022Z,38.38
2022-12-18T11:35:05.858Z,39.00
2022-12-18T11:40:45.122Z,34.15
2022-12-18T11:43:42.502Z,48.83
2022-12-18T11:46:36.409Z,53.58
2022-12-18T11:49:30.156Z,50.45
2022-12-18T11:52:21.215Z,53.47
2022-12-18T11:55:31.072Z,69.88
2022-12-18T11:58:31.304Z,32.13
2022-12-18T12:01:32.573Z,29.02
2022-12-18T12:04:33.784Z,31.50
2022-12-18T12:07:25.277Z,35.13
2022-12-18T12:13:14.463Z,45.97
2022-12-18T12:16:10.359Z,41.63
2022-12-18T12:19:02.823Z,42.17
2022-12-18T12:21:56.354Z,45.08
2022-12-18T12:24:54.015Z,54.78
2022-12-18T12:28:11.860Z,43.60
2022-12-18T12:31:18.034Z,39.13
2022-12-18T12:34:25.475Z,37.42
2022-12-18T12:37:31.408Z,38.15
2022-12-18T12:40:50.281Z,34.15
2022-12-18T12:43:37.261Z,32.50
2022-12-18T12:46:35.327Z,32.30
2022-12-18T12:49:28.083Z,32.90
2022-12-18T12:52:47.710Z,46.90
2022-12-18T12:55:35.453Z,67.75
2022-12-18T12:58:46.884Z,38.72
2022-12-18T13:01:43.263Z,36.33
2022-12-18T13:04:39.456Z,31.27
2022-12-18T13:07:35.974Z,41.50
2022-12-18T13:10:32.696Z,33.53
2022-12-18T13:13:23.597Z,29.65
2022-12-18T13:16:11.745Z,28.00
2022-12-18T13:18:59.965Z,37.33
2022-12-18T13:21:54.885Z,38.20
2022-12-18T13:24:41.716Z,33.72
2022-12-18T13:27:47.033Z,33.75
2022-12-18T13:30:33.912Z,31.73
2022-12-18T13:33:29.913Z,43.58
2022-12-18T13:36:49.710Z,96.47
2022-12-18T13:39:37.922Z,74.57
2022-12-18T13:42:43.374Z,39.22
2022-12-18T13:45:43.416Z,39.70
2022-12-18T13:48:33.756Z,43.78
2022-12-18T13:51:21.428Z,46.00
2022-12-18T13:54:21.532Z,78.82
2022-12-18T13:57:36.304Z,59.50
2022-12-18T14:00:25.682Z,59.88
2022-12-18T14:03:24.849Z,101.90
2022-12-18T14:06:13.848Z,98.22
2022-12-18T14:09:01.664Z,77.10
2022-12-18T14:11:50.010Z,47.75
2022-12-18T14:14:36.739Z,58.35
2022-12-18T14:17:24.254Z,73.65
2022-12-18T14:20:15.995Z,70.90
2022-12-18T14:23:02.725Z,100.00
2022-12-18T14:25:49.726Z,91.00
2022-12-18T14:28:45.422Z,58.17
2022-12-18T14:31:32.912Z,59.53
2022-12-18T14:34:20.529Z,45.63
2022-12-18T14:37:30.205Z,40.97
2022-12-18T14:40:16.752Z,43.10
2022-12-18T14:43:04.041Z,47.40
2022-12-18T14:45:51.029Z,49.70
2022-12-18T14:48:43.061Z,64.10
2022-12-18T14:51:32.666Z,62.95
2022-12-18T14:54:21.034Z,47.05
2022-12-18T14:57:21.337Z,54.00
2022-12-18T15:00:12.948Z,59.03
2022-12-18T15:03:00.024Z,58.28
2022-12-18T15:05:46.793Z,62.53
2022-12-18T15:08:38.198Z,77.45
2022-12-18T15:11:30.695Z,48.88
2022-12-18T15:14:43.458Z,59.05
2022-12-18T15:17:30.397Z,41.92
2022-12-18T15:20:16.678Z,49.92
2022-12-18T15:23:03.851Z,56.40
2022-12-18T15:26:02.451Z,49.25
2022-12-18T15:28:51.043Z,53.28
2022-12-18T15:31:37.654Z,59.95
2022-12-18T15:34:28.156Z,60.10
2022-12-18T15:37:15.287Z,66.53
2022-12-18T15:40:03.671Z,50.28
2022-12-18T15:43:12.530Z,57.92
2022-12-18T15:46:00.479Z,57.40
2022-12-18T15:48:49.955Z,65.22
2022-12-18T15:51:37.397Z,72.68
2022-12-18T15:54:44.012Z,81.18
2022-12-18T15:57:30.616Z,44.00
2022-12-18T16:00:20.006Z,85.20
2022-12-18T16:03:07.784Z,86.53
2022-12-18T16:05:54.924Z,57.45
2022-12-18T16:08:43.471Z,113.45
2022-12-18T16:11:41.387Z,82.88
2022-12-18T16:14:30.722Z,101.45
2022-12-18T16:17:17.912Z,87.05
2022-12-18T16:20:05.089Z,85.90
2022-12-18T16:22:52.456Z,55.45
2022-12-18T16:25:39.162Z,48.08
2022-12-18T16:28:25.850Z,87.80
2022-12-18T16:31:12.948Z,63.67
2022-12-18T16:34:20.020Z,65.85
2022-12-18T16:37:13.196Z,75.57
2022-12-18T16:39:59.927Z,85.63
2022-12-18T16:42:47.419Z,102.05
2022-12-18T16:45:34.320Z,74.38
2022-12-18T16:48:21.028Z,90.90
2022-12-18T16:51:07.702Z,83.05
2022-12-18T16:53:59.884Z,46.42
2022-12-18T16:56:50.022Z,50.08
2022-12-18T16:59:36.940Z,59.63
2022-12-18T17:02:26.076Z,65.63
2022-12-18T17:05:14.748Z,64.68
2022-12-18T17:08:00.870Z,72.22
2022-12-18T17:10:47.676Z,54.70
2022-12-18T17:13:34.655Z,56.53
2022-12-18T17:16:21.975Z,51.80
2022-12-18T17:19:13.578Z,56.22
2022-12-18T17:22:06.285Z,46.03
2022-12-18T17:24:53.145Z,45.58
2022-12-18T17:27:40.447Z,61.25
2022-12-18T17:30:26.706Z,102.38
2022-12-18T17:33:13.629Z,85.72
2022-12-18T17:36:00.968Z,108.00
2022-12-18T17:38:56.683Z,70.53
2022-12-18T17:41:45.693Z,83.13
2022-12-18T17:44:34.458Z,70.20
2022-12-18T17:47:23.607Z,64.67
2022-12-18T17:50:11.034Z,55.17
2022-12-18T17:52:58.675Z,73.93
2022-12-18T17:55:57.000Z,65.50
2022-12-18T17:58:43.644Z,52.00
2022-12-18T18:01:30.765Z,90.87
2022-12-18T18:04:17.456Z,51.55
2022-12-18T18:07:04.698Z,65.83
2022-12-18T18:09:51.571Z,43.73
2022-12-18T18:12:57.948Z,63.55
2022-12-18T18:15:44.256Z,71.50
2022-12-18T18:18:39.104Z,52.70
2022-12-18T18:21:25.757Z,70.80
2022-12-18T18:24:14.142Z,71.45
2022-12-18T18:27:00.688Z,66.93
2022-12-18T18:29:47.888Z,95.20
2022-12-18T18:32:42.361Z,71.70
2022-12-18T18:35:53.446Z,113.67
2022-12-18T18:38:46.739Z,153.27
2022-12-18T18:41:35.249Z,108.13
2022-12-18T18:44:24.847Z,94.53
2022-12-18T18:47:16.171Z,108.70
2022-12-18T18:50:02.847Z,108.18
2022-12-18T18:52:51.027Z,78.47
2022-12-18T18:55:38.857Z,58.33
2022-12-18T18:58:26.352Z,72.37
2022-12-18T19:01:18.048Z,72.20
2022-12-18T19:04:05.158Z,56.50
2022-12-18T19:06:51.532Z,56.93
2022-12-18T19:09:38.611Z,71.93
2022-12-18T19:12:43.724Z,66.00
2022-12-18T19:15:36.082Z,52.17
2022-12-18T19:18:22.990Z,43.30
2022-12-18T19:21:12.855Z,51.58
2022-12-18T19:24:00.216Z,47.90
2022-12-18T19:26:48.381Z,58.57
2022-12-18T19:29:35.128Z,50.22
2022-12-18T19:32:26.945Z,57.38
2022-12-18T19:35:15.849Z,54.87
2022-12-18T19:38:03.360Z,46.73
2022-12-18T19:40:50.179Z,44.33
2022-12-18T19:43:37.890Z,48.33
2022-12-18T19:46:24.246Z,83.18
2022-12-18T19:49:17.493Z,76.15
2022-12-18T19:52:05.916Z,61.10
2022-12-18T19:54:55.042Z,65.63
2022-12-18T19:57:45.124Z,84.33
2022-12-18T20:00:32.843Z,87.38
2022-12-18T20:03:28.912Z,91.20
2022-12-18T20:06:20.910Z,53.30
2022-12-18T20:09:07.896Z,48.03
2022-12-18T20:11:59.327Z,45.50
2022-12-18T20:14:45.954Z,45.60
2022-12-18T20:17:33.359Z,40.80
2022-12-18T20:20:21.289Z,42.88
2022-12-18T20:23:13.669Z,43.63
2022-12-18T20:26:00.880Z,55.92
2022-12-18T20:28:49.745Z,52.42
2022-12-18T20:31:42.103Z,48.30
2022-12-18T20:34:30.468Z,55.22
2022-12-18T20:37:20.071Z,46.65
2022-12-18T20:40:13.828Z,40.70
2022-12-18T20:43:01.206Z,38.30
2022-12-18T20:45:48.039Z,48.45
2022-12-18T20:48:34.857Z,47.07
2022-12-18T20:51:22.043Z,49.78
2022-12-18T20:54:11.757Z,47.60
2022-12-18T20:56:58.809Z,44.35
2022-12-18T20:59:48.364Z,53.85
2022-12-18T21:02:38.175Z,51.72
2022-12-18T21:05:27.014Z,44.58
2022-12-18T21:08:14.186Z,42.88
2022-12-18T21:11:39.002Z,46.73
2022-12-18T21:14:28.252Z,48.03
2022-12-18T21:17:15.533Z,62.45
2022-12-18T21:20:04.800Z,240.83
2022-12-18T21:22:52.589Z,68.57
2022-12-18T21:25:42.447Z,82.05
2022-12-18T21:28:28.775Z,50.40
2022-12-18T21:31:18.276Z,42.70
2022-12-18T21:34:05.912Z,37.33
2022-12-18T21:36:53.997Z,58.20
2022-12-18T21:39:40.168Z,44.73
2022-12-18T21:42:45.586Z,58.30
2022-12-18T21:45:36.516Z,47.40
2022-12-18T21:48:23.344Z,43.40
2022-12-18T21:51:17.868Z,45.87
2022-12-18T21:54:07.957Z,47.97
2022-12-18T21:57:04.854Z,43.70
2022-12-18T21:59:51.845Z,46.95
2022-12-18T22:02:38.330Z,39.35
2022-12-18T22:05:31.762Z,39.77
2022-12-18T22:08:17.954Z,37.47
2022-12-18T22:11:05.212Z,40.70
2022-12-18T22:13:54.485Z,35.23
2022-12-18T22:16:44.751Z,34.50
2022-12-18T22:19:39.499Z,43.30
2022-12-18T22:22:29.255Z,34.77
2022-12-18T22:25:15.370Z,36.88
2022-12-18T22:28:23.460Z,37.77
2022-12-18T22:31:12.084Z,38.93
2022-12-18T22:34:00.555Z,51.27
2022-12-18T22:36:50.926Z,52.73
2022-12-18T22:39:37.816Z,42.30
2022-12-18T22:42:24.385Z,38.10
2022-12-18T22:45:11.434Z,36.47
2022-12-18T22:47:58.108Z,38.77
2022-12-18T22:50:44.514Z,37.97
2022-12-18T22:53:38.546Z,35.67
2022-12-18T22:56:29.133Z,36.80
2022-12-18T22:59:21.475Z,35.23
2022-12-18T23:02:11.148Z,38.87
2022-12-18T23:04:59.918Z,33.37
2022-12-18T23:07:46.779Z,34.33
2022-12-18T23:10:38.847Z,30.63
2022-12-18T23:13:26.163Z,34.40
2022-12-18T23:16:18.339Z,35.83
2022-12-18T23:19:05.961Z,37.40
2022-12-18T23:21:57.817Z,33.00
2022-12-18T23:24:44.896Z,35.57
2022-12-18T23:27:34.487Z,33.93
2022-12-18T23:30:21.171Z,35.50
2022-12-18T23:33:07.690Z,34.23
2022-12-18T23:35:59.172Z,36.47
2022-12-18T23:38:53.637Z,61.67
2022-12-18T23:41:40.586Z,35.50
2022-12-18T23:44:27.837Z,35.83
2022-12-18T23:47:14.689Z,36.50
2022-12-18T23:50:15.561Z,33.60
2022-12-18T23:53:05.288Z,34.53
2022-12-18T23:55:51.910Z,34.07
2022-12-18T23:58:39.947Z,33.13
